sensor_id;sensor_type;location;lat;lon;timestamp;pressure;altitude;pressure_sealevel;temperature;humidity
52361;BME280;38294;42.966;1.608;2023-01-28T04:03:25;97490.84;;;4.45;79.36
52361;BME280;38294;42.966;1.608;2023-01-28T04:06:02;97489.31;;;4.61;80.39
52361;BME280;38294;42.966;1.608;2023-01-28T04:08:28;97489.41;;;4.47;79.72
52361;BME280;38294;42.966;1.608;2023-01-28T04:10:54;97484.69;;;4.61;78.43
52361;BME280;38294;42.966;1.608;2023-01-28T04:13:20;97494.56;;;4.27;79.49
52361;BME280;38294;42.966;1.608;2023-01-28T04:15:46;97492.94;;;4.56;77.90
52361;BME280;38294;42.966;1.608;2023-01-28T04:18:12;97494.69;;;5.00;75.74
52361;BME280;38294;42.966;1.608;2023-01-28T04:20:38;97504.78;;;5.25;74.61
52361;BME280;38294;42.966;1.608;2023-01-28T04:23:04;97498.38;;;5.30;74.77
52361;BME280;38294;42.966;1.608;2023-01-28T04:25:31;97499.41;;;4.78;76.13
52361;BME280;38294;42.966;1.608;2023-01-28T04:27:57;97514.44;;;4.92;76.44
52361;BME280;38294;42.966;1.608;2023-01-28T04:30:22;97506.81;;;5.03;75.44
52361;BME280;38294;42.966;1.608;2023-01-28T04:32:48;97506.97;;;5.06;74.47
52361;BME280;38294;42.966;1.608;2023-01-28T04:35:15;97504.00;;;5.51;73.58
52361;BME280;38294;42.966;1.608;2023-01-28T04:37:41;97516.81;;;4.85;74.64
52361;BME280;38294;42.966;1.608;2023-01-28T04:40:08;97495.63;;;4.96;75.55
52361;BME280;38294;42.966;1.608;2023-01-28T04:42:34;97505.84;;;4.90;74.39
52361;BME280;38294;42.966;1.608;2023-01-28T04:44:59;97501.72;;;5.27;74.58
52361;BME280;38294;42.966;1.608;2023-01-28T04:47:25;97510.53;;;5.41;73.29
52361;BME280;38294;42.966;1.608;2023-01-28T04:49:50;97509.88;;;5.53;72.59
52361;BME280;38294;42.966;1.608;2023-01-28T04:52:16;97516.78;;;5.42;72.48
52361;BME280;38294;42.966;1.608;2023-01-28T04:54:41;97517.91;;;5.49;73.00
52361;BME280;38294;42.966;1.608;2023-01-28T04:57:07;97512.31;;;5.54;72.59
52361;BME280;38294;42.966;1.608;2023-01-28T04:59:32;97519.66;;;5.54;71.89
52361;BME280;38294;42.966;1.608;2023-01-28T05:01:58;97508.94;;;5.74;71.23
52361;BME280;38294;42.966;1.608;2023-01-28T05:04:23;97517.25;;;5.61;72.16
52361;BME280;38294;42.966;1.608;2023-01-28T05:06:49;97516.63;;;5.81;71.36
52361;BME280;38294;42.966;1.608;2023-01-28T05:09:15;97518.66;;;5.15;72.67
52361;BME280;38294;42.966;1.608;2023-01-28T05:11:40;97516.13;;;5.53;71.81
52361;BME280;38294;42.966;1.608;2023-01-28T05:14:06;97512.41;;;5.23;72.57
52361;BME280;38294;42.966;1.608;2023-01-28T05:16:32;97513.09;;;5.63;71.30
52361;BME280;38294;42.966;1.608;2023-01-28T05:18:59;97538.44;;;5.07;73.15
52361;BME280;38294;42.966;1.608;2023-01-28T05:21:26;97534.84;;;5.55;72.11
52361;BME280;38294;42.966;1.608;2023-01-28T05:23:51;97532.75;;;5.26;72.48
52361;BME280;38294;42.966;1.608;2023-01-28T05:26:17;97534.03;;;5.54;72.69
52361;BME280;38294;42.966;1.608;2023-01-28T05:28:43;97545.38;;;5.48;72.68
52361;BME280;38294;42.966;1.608;2023-01-28T05:31:09;97551.13;;;5.38;72.44
52361;BME280;38294;42.966;1.608;2023-01-28T05:33:35;97555.09;;;5.40;73.24
52361;BME280;38294;42.966;1.608;2023-01-28T05:36:01;97563.59;;;4.82;75.47
52361;BME280;38294;42.966;1.608;2023-01-28T05:38:26;97558.13;;;5.21;74.04
52361;BME280;38294;42.966;1.608;2023-01-28T05:40:52;97561.66;;;5.30;72.35
52361;BME280;38294;42.966;1.608;2023-01-28T05:43:18;97561.31;;;5.23;73.01
52361;BME280;38294;42.966;1.608;2023-01-28T05:45:43;97563.59;;;5.56;72.79
52361;BME280;38294;42.966;1.608;2023-01-28T05:48:09;97577.81;;;5.44;72.57
52361;BME280;38294;42.966;1.608;2023-01-28T05:50:35;97566.06;;;5.09;74.38
52361;BME280;38294;42.966;1.608;2023-01-28T05:53:04;97578.81;;;5.65;74.49
52361;BME280;38294;42.966;1.608;2023-01-28T05:55:30;97585.25;;;4.73;77.66
52361;BME280;38294;42.966;1.608;2023-01-28T05:57:55;97577.53;;;4.98;79.11
52361;BME280;38294;42.966;1.608;2023-01-28T06:00:21;97576.16;;;5.17;78.72
52361;BME280;38294;42.966;1.608;2023-01-28T06:02:46;97578.59;;;4.88;79.73
52361;BME280;38294;42.966;1.608;2023-01-28T06:05:12;97579.75;;;4.87;79.21
52361;BME280;38294;42.966;1.608;2023-01-28T06:07:37;97591.09;;;4.05;81.85
52361;BME280;38294;42.966;1.608;2023-01-28T06:10:03;97593.91;;;4.45;81.71
52361;BME280;38294;42.966;1.608;2023-01-28T06:12:29;97602.69;;;4.50;79.70
52361;BME280;38294;42.966;1.608;2023-01-28T06:14:55;97615.66;;;4.31;80.54
52361;BME280;38294;42.966;1.608;2023-01-28T06:17:20;97612.31;;;4.56;80.00
52361;BME280;38294;42.966;1.608;2023-01-28T06:19:46;97606.88;;;4.03;81.83
52361;BME280;38294;42.966;1.608;2023-01-28T06:22:11;97602.78;;;4.14;81.36
52361;BME280;38294;42.966;1.608;2023-01-28T06:24:37;97599.97;;;4.50;79.61
52361;BME280;38294;42.966;1.608;2023-01-28T06:27:02;97612.91;;;4.22;79.30
52361;BME280;38294;42.966;1.608;2023-01-28T06:29:28;97611.31;;;5.22;75.17
52361;BME280;38294;42.966;1.608;2023-01-28T06:31:53;97622.53;;;4.59;77.32
52361;BME280;38294;42.966;1.608;2023-01-28T06:34:19;97608.91;;;5.21;75.38
52361;BME280;38294;42.966;1.608;2023-01-28T06:36:44;97607.00;;;5.21;73.87
52361;BME280;38294;42.966;1.608;2023-01-28T06:39:10;97607.50;;;4.84;73.55
52361;BME280;38294;42.966;1.608;2023-01-28T06:41:36;97617.06;;;4.82;74.52
52361;BME280;38294;42.966;1.608;2023-01-28T06:44:01;97618.00;;;4.77;72.84
52361;BME280;38294;42.966;1.608;2023-01-28T06:46:27;97604.91;;;5.10;72.56
52361;BME280;38294;42.966;1.608;2023-01-28T06:48:53;97606.66;;;5.14;73.07
52361;BME280;38294;42.966;1.608;2023-01-28T06:51:18;97598.75;;;5.44;70.15
52361;BME280;38294;42.966;1.608;2023-01-28T06:53:45;97608.88;;;5.12;72.30
52361;BME280;38294;42.966;1.608;2023-01-28T06:56:10;97604.16;;;5.35;70.96
52361;BME280;38294;42.966;1.608;2023-01-28T06:58:36;97609.69;;;5.13;71.49
52361;BME280;38294;42.966;1.608;2023-01-28T07:01:01;97606.84;;;6.00;69.26
52361;BME280;38294;42.966;1.608;2023-01-28T07:03:28;97610.13;;;5.54;69.02
52361;BME280;38294;42.966;1.608;2023-01-28T07:05:53;97614.28;;;5.60;68.08
52361;BME280;38294;42.966;1.608;2023-01-28T07:08:19;97610.44;;;5.70;67.72
52361;BME280;38294;42.966;1.608;2023-01-28T07:10:45;97610.75;;;5.60;68.05
52361;BME280;38294;42.966;1.608;2023-01-28T07:13:10;97635.78;;;6.13;65.94
52361;BME280;38294;42.966;1.608;2023-01-28T07:15:36;97612.09;;;6.22;65.91
52361;BME280;38294;42.966;1.608;2023-01-28T07:18:02;97622.75;;;5.59;67.02
52361;BME280;38294;42.966;1.608;2023-01-28T07:20:27;97617.84;;;5.13;69.36
52361;BME280;38294;42.966;1.608;2023-01-28T07:22:53;97634.56;;;5.63;67.36
52361;BME280;38294;42.966;1.608;2023-01-28T07:25:18;97648.09;;;4.98;69.92
52361;BME280;38294;42.966;1.608;2023-01-28T07:27:51;97645.94;;;5.65;68.85
52361;BME280;38294;42.966;1.608;2023-01-28T07:30:18;97646.53;;;5.45;67.89
52361;BME280;38294;42.966;1.608;2023-01-28T07:32:45;97648.50;;;5.61;67.21
52361;BME280;38294;42.966;1.608;2023-01-28T07:35:11;97648.66;;;5.82;67.42
52361;BME280;38294;42.966;1.608;2023-01-28T07:37:38;97656.75;;;5.48;67.02
52361;BME280;38294;42.966;1.608;2023-01-28T07:40:04;97656.59;;;6.26;65.84
52361;BME280;38294;42.966;1.608;2023-01-28T07:42:29;97666.47;;;6.65;64.54
52361;BME280;38294;42.966;1.608;2023-01-28T07:44:55;97658.47;;;5.92;65.21
52361;BME280;38294;42.966;1.608;2023-01-28T07:47:21;97662.63;;;5.89;66.27
52361;BME280;38294;42.966;1.608;2023-01-28T07:49:47;97662.22;;;5.56;65.85
52361;BME280;38294;42.966;1.608;2023-01-28T07:52:12;97669.88;;;6.19;64.59
52361;BME280;38294;42.966;1.608;2023-01-28T07:54:38;97668.75;;;6.29;64.11
52361;BME280;38294;42.966;1.608;2023-01-28T07:57:07;97666.66;;;6.00;64.87
52361;BME280;38294;42.966;1.608;2023-01-28T07:59:36;97670.47;;;5.34;66.61
52361;BME280;38294;42.966;1.608;2023-01-28T08:02:02;97666.97;;;5.90;66.30
52361;BME280;38294;42.966;1.608;2023-01-28T08:04:27;97671.69;;;5.59;65.34
52361;BME280;38294;42.966;1.608;2023-01-28T08:06:53;97676.16;;;5.24;66.77
52361;BME280;38294;42.966;1.608;2023-01-28T08:09:18;97671.97;;;5.66;64.77
52361;BME280;38294;42.966;1.608;2023-01-28T08:11:44;97678.63;;;5.91;64.70
52361;BME280;38294;42.966;1.608;2023-01-28T08:14:10;97674.16;;;5.86;63.18
52361;BME280;38294;42.966;1.608;2023-01-28T08:16:35;97687.84;;;5.72;64.93
52361;BME280;38294;42.966;1.608;2023-01-28T08:19:01;97680.25;;;6.09;64.08
52361;BME280;38294;42.966;1.608;2023-01-28T08:21:27;97697.81;;;5.46;65.29
52361;BME280;38294;42.966;1.608;2023-01-28T08:23:52;97690.13;;;5.40;65.74
52361;BME280;38294;42.966;1.608;2023-01-28T08:26:19;97696.56;;;6.09;63.71
52361;BME280;38294;42.966;1.608;2023-01-28T08:28:44;97694.28;;;5.37;65.93
52361;BME280;38294;42.966;1.608;2023-01-28T08:31:10;97702.22;;;5.64;65.39
52361;BME280;38294;42.966;1.608;2023-01-28T08:33:35;97705.53;;;6.01;63.36
52361;BME280;38294;42.966;1.608;2023-01-28T08:36:04;97712.56;;;6.10;64.11
52361;BME280;38294;42.966;1.608;2023-01-28T08:38:30;97714.13;;;5.86;64.65
52361;BME280;38294;42.966;1.608;2023-01-28T08:40:56;97713.66;;;5.92;64.04
52361;BME280;38294;42.966;1.608;2023-01-28T08:43:23;97723.19;;;5.81;63.98
52361;BME280;38294;42.966;1.608;2023-01-28T08:45:48;97722.28;;;5.86;63.93
52361;BME280;38294;42.966;1.608;2023-01-28T08:48:17;97727.50;;;5.73;65.93
52361;BME280;38294;42.966;1.608;2023-01-28T08:50:43;97729.06;;;6.14;63.24
52361;BME280;38294;42.966;1.608;2023-01-28T08:53:11;97737.53;;;6.47;63.16
52361;BME280;38294;42.966;1.608;2023-01-28T08:55:38;97729.00;;;5.49;65.73
52361;BME280;38294;42.966;1.608;2023-01-28T08:58:05;97734.28;;;6.02;64.52
52361;BME280;38294;42.966;1.608;2023-01-28T09:00:31;97735.44;;;6.09;64.29
52361;BME280;38294;42.966;1.608;2023-01-28T09:02:56;97734.97;;;6.16;63.53
52361;BME280;38294;42.966;1.608;2023-01-28T09:05:22;97731.94;;;5.69;64.37
52361;BME280;38294;42.966;1.608;2023-01-28T09:07:48;97737.25;;;5.35;65.05
52361;BME280;38294;42.966;1.608;2023-01-28T09:10:14;97726.06;;;5.76;65.25
52361;BME280;38294;42.966;1.608;2023-01-28T09:12:41;97730.59;;;5.89;64.61
52361;BME280;38294;42.966;1.608;2023-01-28T09:15:07;97740.22;;;5.56;65.70
52361;BME280;38294;42.966;1.608;2023-01-28T09:17:33;97735.38;;;5.44;67.18
52361;BME280;38294;42.966;1.608;2023-01-28T09:19:59;97736.97;;;5.14;66.12
52361;BME280;38294;42.966;1.608;2023-01-28T09:22:24;97745.53;;;5.69;65.87
52361;BME280;38294;42.966;1.608;2023-01-28T09:24:50;97747.50;;;5.38;66.69
52361;BME280;38294;42.966;1.608;2023-01-28T09:27:17;97751.94;;;5.65;65.92
52361;BME280;38294;42.966;1.608;2023-01-28T09:29:43;97741.88;;;5.65;65.87
52361;BME280;38294;42.966;1.608;2023-01-28T09:32:09;97751.31;;;5.37;67.01
52361;BME280;38294;42.966;1.608;2023-01-28T09:34:34;97751.09;;;4.94;67.52
52361;BME280;38294;42.966;1.608;2023-01-28T09:37:00;97746.88;;;5.10;67.09
52361;BME280;38294;42.966;1.608;2023-01-28T09:39:26;97761.66;;;5.26;66.25
52361;BME280;38294;42.966;1.608;2023-01-28T09:47:27;97764.13;;;6.41;64.19
52361;BME280;38294;42.966;1.608;2023-01-28T09:49:58;97766.97;;;5.71;66.12
52361;BME280;38294;42.966;1.608;2023-01-28T09:52:25;97753.53;;;5.26;67.72
52361;BME280;38294;42.966;1.608;2023-01-28T09:55:06;97759.63;;;6.28;65.09
52361;BME280;38294;42.966;1.608;2023-01-28T09:57:41;97768.75;;;7.01;62.87
52361;BME280;38294;42.966;1.608;2023-01-28T10:00:21;97764.88;;;6.16;65.51
52361;BME280;38294;42.966;1.608;2023-01-28T10:03:07;97762.34;;;6.19;66.28
52361;BME280;38294;42.966;1.608;2023-01-28T10:08:36;97760.13;;;6.30;65.67
52361;BME280;38294;42.966;1.608;2023-01-28T10:17:40;97762.84;;;6.47;64.00
52361;BME280;38294;42.966;1.608;2023-01-28T10:20:12;97757.03;;;5.66;65.40
52361;BME280;38294;42.966;1.608;2023-01-28T10:22:50;97754.94;;;5.55;66.83
52361;BME280;38294;42.966;1.608;2023-01-28T10:25:25;97756.09;;;6.27;64.69
52361;BME280;38294;42.966;1.608;2023-01-28T10:27:52;97762.19;;;5.37;67.02
52361;BME280;38294;42.966;1.608;2023-01-28T10:32:55;97768.97;;;5.48;66.47
52361;BME280;38294;42.966;1.608;2023-01-28T10:35:23;97771.47;;;5.36;66.65
52361;BME280;38294;42.966;1.608;2023-01-28T10:37:53;97751.81;;;6.78;63.70
52361;BME280;38294;42.966;1.608;2023-01-28T10:40:21;97760.53;;;5.98;64.67
52361;BME280;38294;42.966;1.608;2023-01-28T10:42:47;97758.13;;;5.96;64.89
52361;BME280;38294;42.966;1.608;2023-01-28T10:45:22;97757.97;;;5.22;66.58
52361;BME280;38294;42.966;1.608;2023-01-28T10:47:53;97751.91;;;6.04;65.97
52361;BME280;38294;42.966;1.608;2023-01-28T10:50:26;97758.03;;;5.79;66.00
52361;BME280;38294;42.966;1.608;2023-01-28T10:52:53;97761.38;;;5.37;66.50
52361;BME280;38294;42.966;1.608;2023-01-28T10:55:19;97765.78;;;4.93;68.37
52361;BME280;38294;42.966;1.608;2023-01-28T10:57:45;97751.41;;;5.94;65.19
52361;BME280;38294;42.966;1.608;2023-01-28T11:00:30;97741.34;;;6.03;65.22
52361;BME280;38294;42.966;1.608;2023-01-28T11:02:58;97761.00;;;5.60;65.94
52361;BME280;38294;42.966;1.608;2023-01-28T11:05:29;97753.19;;;6.07;65.77
52361;BME280;38294;42.966;1.608;2023-01-28T11:08:15;97737.09;;;6.36;63.87
52361;BME280;38294;42.966;1.608;2023-01-28T11:10:41;97737.47;;;5.95;65.76
52361;BME280;38294;42.966;1.608;2023-01-28T11:13:33;97728.75;;;6.41;64.84
52361;BME280;38294;42.966;1.608;2023-01-28T11:18:31;97715.00;;;6.29;64.46
52361;BME280;38294;42.966;1.608;2023-01-28T11:21:04;97702.72;;;7.12;62.43
52361;BME280;38294;42.966;1.608;2023-01-28T11:23:31;97707.03;;;7.13;60.69
52361;BME280;38294;42.966;1.608;2023-01-28T11:26:14;97717.41;;;6.39;63.15
52361;BME280;38294;42.966;1.608;2023-01-28T11:28:41;97708.38;;;6.04;64.25
52361;BME280;38294;42.966;1.608;2023-01-28T11:31:10;97721.41;;;6.59;63.83
52361;BME280;38294;42.966;1.608;2023-01-28T11:33:58;97728.72;;;6.84;62.86
52361;BME280;38294;42.966;1.608;2023-01-28T11:36:26;97733.53;;;6.53;63.05
52361;BME280;38294;42.966;1.608;2023-01-28T11:38:57;97732.44;;;6.45;62.84
52361;BME280;38294;42.966;1.608;2023-01-28T11:43:52;97718.00;;;6.19;63.46
52361;BME280;38294;42.966;1.608;2023-01-28T11:51:32;97693.22;;;6.03;63.83
52361;BME280;38294;42.966;1.608;2023-01-28T12:02:15;97694.63;;;6.69;62.84
52361;BME280;38294;42.966;1.608;2023-01-28T12:05:11;97692.09;;;6.56;64.03
52361;BME280;38294;42.966;1.608;2023-01-28T12:13:25;97701.16;;;6.85;63.76
52361;BME280;38294;42.966;1.608;2023-01-28T12:16:17;97691.63;;;6.28;64.42
52361;BME280;38294;42.966;1.608;2023-01-28T12:18:54;97678.13;;;5.89;65.51
52361;BME280;38294;42.966;1.608;2023-01-28T12:30:54;97666.97;;;6.24;65.94
52361;BME280;38294;42.966;1.608;2023-01-28T12:38:10;97651.91;;;6.61;65.23
52361;BME280;38294;42.966;1.608;2023-01-28T12:40:44;97656.41;;;6.14;66.40
52361;BME280;38294;42.966;1.608;2023-01-28T12:43:33;97646.19;;;5.94;67.52
52361;BME280;38294;42.966;1.608;2023-01-28T12:49:23;97646.78;;;6.51;64.41
52361;BME280;38294;42.966;1.608;2023-01-28T12:54:38;97643.13;;;6.21;65.92
52361;BME280;38294;42.966;1.608;2023-01-28T12:57:08;97642.50;;;6.24;66.43
52361;BME280;38294;42.966;1.608;2023-01-28T12:59:47;97633.97;;;5.83;67.36
52361;BME280;38294;42.966;1.608;2023-01-28T13:02:26;97639.13;;;5.93;67.80
52361;BME280;38294;42.966;1.608;2023-01-28T13:05:25;97623.13;;;6.26;66.47
52361;BME280;38294;42.966;1.608;2023-01-28T13:07:56;97622.63;;;5.81;66.95
52361;BME280;38294;42.966;1.608;2023-01-28T13:10:39;97621.38;;;6.21;67.25
52361;BME280;38294;42.966;1.608;2023-01-28T13:13:06;97624.69;;;5.67;67.21
52361;BME280;38294;42.966;1.608;2023-01-28T13:15:37;97618.09;;;5.51;67.93
52361;BME280;38294;42.966;1.608;2023-01-28T13:18:04;97610.47;;;6.56;65.10
52361;BME280;38294;42.966;1.608;2023-01-28T13:20:48;97604.19;;;6.64;65.53
52361;BME280;38294;42.966;1.608;2023-01-28T13:28:43;97624.03;;;5.61;67.15
52361;BME280;38294;42.966;1.608;2023-01-28T13:31:11;97613.84;;;5.84;67.12
52361;BME280;38294;42.966;1.608;2023-01-28T13:44:19;97633.31;;;5.69;68.91
52361;BME280;38294;42.966;1.608;2023-01-28T13:46:45;97641.81;;;5.85;67.51
52361;BME280;38294;42.966;1.608;2023-01-28T13:49:32;97654.16;;;5.91;66.84
52361;BME280;38294;42.966;1.608;2023-01-28T13:52:05;97649.84;;;6.24;66.60
52361;BME280;38294;42.966;1.608;2023-01-28T13:54:42;97649.19;;;6.01;66.82
52361;BME280;38294;42.966;1.608;2023-01-28T14:00:35;97639.53;;;5.61;66.48
52361;BME280;38294;42.966;1.608;2023-01-28T14:03:53;97650.66;;;5.99;66.05
52361;BME280;38294;42.966;1.608;2023-01-28T14:14:56;97663.44;;;6.15;65.18
52361;BME280;38294;42.966;1.608;2023-01-28T14:20:19;97668.63;;;5.60;67.13
52361;BME280;38294;42.966;1.608;2023-01-28T14:22:47;97656.56;;;5.36;67.98
52361;BME280;38294;42.966;1.608;2023-01-28T14:25:24;97652.91;;;6.14;66.49
52361;BME280;38294;42.966;1.608;2023-01-28T14:27:52;97660.25;;;6.05;65.94
52361;BME280;38294;42.966;1.608;2023-01-28T14:30:24;97661.03;;;6.31;65.44
52361;BME280;38294;42.966;1.608;2023-01-28T14:32:53;97675.63;;;6.09;64.51
52361;BME280;38294;42.966;1.608;2023-01-28T14:35:31;97673.16;;;6.76;63.63
52361;BME280;38294;42.966;1.608;2023-01-28T14:37:59;97681.66;;;5.89;65.15
52361;BME280;38294;42.966;1.608;2023-01-28T14:40:32;97675.13;;;6.24;64.07
52361;BME280;38294;42.966;1.608;2023-01-28T14:43:04;97671.44;;;6.20;64.75
52361;BME280;38294;42.966;1.608;2023-01-28T14:46:08;97663.44;;;6.58;63.80
52361;BME280;38294;42.966;1.608;2023-01-28T14:48:49;97682.00;;;5.96;65.02
52361;BME280;38294;42.966;1.608;2023-01-28T14:51:45;97680.25;;;6.26;64.95
52361;BME280;38294;42.966;1.608;2023-01-28T14:59:58;97681.63;;;5.80;64.45
52361;BME280;38294;42.966;1.608;2023-01-28T15:02:30;97699.63;;;6.42;63.10
52361;BME280;38294;42.966;1.608;2023-01-28T15:05:10;97697.22;;;6.31;63.92
52361;BME280;38294;42.966;1.608;2023-01-28T15:07:35;97703.31;;;6.20;63.76
52361;BME280;38294;42.966;1.608;2023-01-28T15:12:51;97700.91;;;6.18;63.83
52361;BME280;38294;42.966;1.608;2023-01-28T15:15:23;97704.34;;;5.37;66.26
52361;BME280;38294;42.966;1.608;2023-01-28T15:17:50;97704.25;;;6.15;63.76
52361;BME280;38294;42.966;1.608;2023-01-28T15:20:21;97708.91;;;6.49;63.10
52361;BME280;38294;42.966;1.608;2023-01-28T15:22:48;97703.28;;;6.63;61.86
52361;BME280;38294;42.966;1.608;2023-01-28T15:25:19;97711.28;;;6.33;63.50
52361;BME280;38294;42.966;1.608;2023-01-28T15:27:46;97707.94;;;6.19;63.53
52361;BME280;38294;42.966;1.608;2023-01-28T15:30:24;97716.72;;;6.08;64.18
52361;BME280;38294;42.966;1.608;2023-01-28T15:32:59;97718.66;;;6.24;63.31
52361;BME280;38294;42.966;1.608;2023-01-28T15:35:26;97724.78;;;5.82;64.84
52361;BME280;38294;42.966;1.608;2023-01-28T15:37:52;97728.75;;;5.59;64.79
52361;BME280;38294;42.966;1.608;2023-01-28T15:40:19;97731.03;;;5.82;64.07
52361;BME280;38294;42.966;1.608;2023-01-28T15:42:46;97724.56;;;6.18;64.11
52361;BME280;38294;42.966;1.608;2023-01-28T15:45:17;97738.50;;;6.51;63.57
52361;BME280;38294;42.966;1.608;2023-01-28T15:47:44;97735.47;;;6.26;63.44
52361;BME280;38294;42.966;1.608;2023-01-28T15:50:18;97738.50;;;6.76;62.80
52361;BME280;38294;42.966;1.608;2023-01-28T15:52:44;97731.03;;;5.82;64.38
52361;BME280;38294;42.966;1.608;2023-01-28T15:55:39;97736.09;;;6.41;62.98
52361;BME280;38294;42.966;1.608;2023-01-28T15:58:19;97740.88;;;6.01;63.72
52361;BME280;38294;42.966;1.608;2023-01-28T16:00:46;97737.00;;;5.93;64.74
52361;BME280;38294;42.966;1.608;2023-01-28T16:03:20;97748.06;;;6.05;64.26
52361;BME280;38294;42.966;1.608;2023-01-28T16:05:58;97727.16;;;5.66;65.59
52361;BME280;38294;42.966;1.608;2023-01-28T16:08:36;97741.38;;;6.20;64.29
52361;BME280;38294;42.966;1.608;2023-01-28T16:11:04;97746.53;;;5.82;64.19
52361;BME280;38294;42.966;1.608;2023-01-28T16:13:31;97749.66;;;5.98;64.46
52361;BME280;38294;42.966;1.608;2023-01-28T16:15:58;97755.94;;;6.15;64.30
52361;BME280;38294;42.966;1.608;2023-01-28T16:18:30;97754.03;;;6.42;62.35
52361;BME280;38294;42.966;1.608;2023-01-28T16:20:59;97752.75;;;6.30;63.15
52361;BME280;38294;42.966;1.608;2023-01-28T16:23:27;97755.00;;;6.80;61.94
52361;BME280;38294;42.966;1.608;2023-01-28T16:26:21;97768.94;;;6.70;62.49
52361;BME280;38294;42.966;1.608;2023-01-28T16:28:47;97757.22;;;5.78;64.85
52361;BME280;38294;42.966;1.608;2023-01-28T16:31:13;97763.19;;;5.50;65.00
52361;BME280;38294;42.966;1.608;2023-01-28T16:33:38;97762.69;;;6.52;62.91
52361;BME280;38294;42.966;1.608;2023-01-28T16:36:04;97767.09;;;6.05;64.16
52361;BME280;38294;42.966;1.608;2023-01-28T16:38:30;97770.03;;;6.43;63.13
52361;BME280;38294;42.966;1.608;2023-01-28T16:40:55;97773.84;;;6.16;63.39
52361;BME280;38294;42.966;1.608;2023-01-28T16:43:23;97779.25;;;6.08;64.44
52361;BME280;38294;42.966;1.608;2023-01-28T16:45:48;97782.53;;;5.48;66.28
52361;BME280;38294;42.966;1.608;2023-01-28T16:48:14;97787.75;;;5.67;66.33
52361;BME280;38294;42.966;1.608;2023-01-28T16:50:41;97790.94;;;6.08;66.31
52361;BME280;38294;42.966;1.608;2023-01-28T16:53:22;97795.03;;;6.54;65.09
52361;BME280;38294;42.966;1.608;2023-01-28T16:55:50;97796.78;;;6.41;65.44
52361;BME280;38294;42.966;1.608;2023-01-28T16:58:19;97791.81;;;6.69;64.06
52361;BME280;38294;42.966;1.608;2023-01-28T17:00:47;97798.25;;;6.56;64.12
52361;BME280;38294;42.966;1.608;2023-01-28T17:03:12;97802.06;;;4.97;67.71
52361;BME280;38294;42.966;1.608;2023-01-28T17:05:38;97804.19;;;5.62;65.73
52361;BME280;38294;42.966;1.608;2023-01-28T17:08:04;97801.56;;;5.48;66.85
52361;BME280;38294;42.966;1.608;2023-01-28T17:10:29;97817.50;;;5.41;67.23
52361;BME280;38294;42.966;1.608;2023-01-28T17:12:55;97808.69;;;5.66;66.53
52361;BME280;38294;42.966;1.608;2023-01-28T17:15:23;97811.72;;;5.65;65.74
52361;BME280;38294;42.966;1.608;2023-01-28T17:17:49;97820.06;;;5.15;67.70
52361;BME280;38294;42.966;1.608;2023-01-28T17:20:17;97822.03;;;5.01;68.90
52361;BME280;38294;42.966;1.608;2023-01-28T17:22:44;97818.00;;;5.82;67.72
52361;BME280;38294;42.966;1.608;2023-01-28T17:25:10;97828.97;;;5.91;66.08
52361;BME280;38294;42.966;1.608;2023-01-28T17:27:36;97830.72;;;5.87;65.73
52361;BME280;38294;42.966;1.608;2023-01-28T17:30:01;97835.63;;;6.24;65.18
52361;BME280;38294;42.966;1.608;2023-01-28T17:32:28;97845.03;;;5.79;66.82
52361;BME280;38294;42.966;1.608;2023-01-28T17:34:53;97848.59;;;5.88;66.83
52361;BME280;38294;42.966;1.608;2023-01-28T17:37:19;97859.75;;;5.25;68.27
52361;BME280;38294;42.966;1.608;2023-01-28T17:39:44;97858.47;;;6.15;66.12
52361;BME280;38294;42.966;1.608;2023-01-28T17:42:10;97861.63;;;6.00;67.49
52361;BME280;38294;42.966;1.608;2023-01-28T17:44:35;97863.09;;;6.14;66.57
52361;BME280;38294;42.966;1.608;2023-01-28T17:47:01;97860.72;;;5.51;67.97
52361;BME280;38294;42.966;1.608;2023-01-28T17:49:27;97872.59;;;5.86;67.55
52361;BME280;38294;42.966;1.608;2023-01-28T17:51:52;97879.16;;;5.63;67.92
52361;BME280;38294;42.966;1.608;2023-01-28T17:54:18;97888.31;;;5.22;68.32
52361;BME280;38294;42.966;1.608;2023-01-28T17:56:44;97885.91;;;5.43;68.12
52361;BME280;38294;42.966;1.608;2023-01-28T17:59:10;97895.63;;;5.66;68.03
52361;BME280;38294;42.966;1.608;2023-01-28T18:01:36;97893.34;;;5.29;68.69
52361;BME280;38294;42.966;1.608;2023-01-28T18:04:02;97892.00;;;6.02;67.56
52361;BME280;38294;42.966;1.608;2023-01-28T18:06:36;97891.66;;;5.95;67.97
52361;BME280;38294;42.966;1.608;2023-01-28T18:09:03;97894.72;;;5.04;69.67
52361;BME280;38294;42.966;1.608;2023-01-28T18:11:29;97901.00;;;5.49;67.52
52361;BME280;38294;42.966;1.608;2023-01-28T18:13:56;97898.53;;;5.70;68.08
52361;BME280;38294;42.966;1.608;2023-01-28T18:16:21;97901.94;;;5.75;67.25
52361;BME280;38294;42.966;1.608;2023-01-28T18:18:48;97916.81;;;5.11;69.19
52361;BME280;38294;42.966;1.608;2023-01-28T18:21:35;97907.97;;;5.42;69.96
52361;BME280;38294;42.966;1.608;2023-01-28T18:24:03;97903.75;;;5.13;70.04
52361;BME280;38294;42.966;1.608;2023-01-28T18:26:29;97903.34;;;4.84;71.59
52361;BME280;38294;42.966;1.608;2023-01-28T18:28:54;97910.81;;;4.65;70.97
52361;BME280;38294;42.966;1.608;2023-01-28T18:31:20;97912.81;;;5.09;71.48
52361;BME280;38294;42.966;1.608;2023-01-28T18:33:46;97921.03;;;5.17;71.83
52361;BME280;38294;42.966;1.608;2023-01-28T18:36:12;97917.44;;;5.08;71.72
52361;BME280;38294;42.966;1.608;2023-01-28T18:38:38;97929.53;;;5.02;71.74
52361;BME280;38294;42.966;1.608;2023-01-28T18:41:04;97935.25;;;4.65;73.31
52361;BME280;38294;42.966;1.608;2023-01-28T18:43:29;97926.75;;;4.80;71.29
52361;BME280;38294;42.966;1.608;2023-01-28T18:45:58;97925.50;;;5.58;71.57
52361;BME280;38294;42.966;1.608;2023-01-28T18:48:24;97944.38;;;5.63;71.78
52361;BME280;38294;42.966;1.608;2023-01-28T18:50:52;97932.97;;;5.52;71.89
52361;BME280;38294;42.966;1.608;2023-01-28T18:53:18;97932.41;;;5.19;71.56
52361;BME280;38294;42.966;1.608;2023-01-28T18:55:44;97935.75;;;5.03;71.72
52361;BME280;38294;42.966;1.608;2023-01-28T18:58:09;97926.97;;;4.84;72.14
52361;BME280;38294;42.966;1.608;2023-01-28T19:00:35;97936.81;;;4.80;72.86
52361;BME280;38294;42.966;1.608;2023-01-28T19:03:01;97935.38;;;4.82;72.78